sensor_id;sensor_type;location;lat;lon;timestamp;P1;durP1;ratioP1;P2;durP2;ratioP2
836;SDS011;400;53.550;9.932;2023-03-01T00:00:17;6.40;;;5.80;;
836;SDS011;400;53.550;9.932;2023-03-01T00:02:47;6.00;;;5.35;;
836;SDS011;400;53.550;9.932;2023-03-01T00:05:13;7.22;;;5.28;;
836;SDS011;400;53.550;9.932;2023-03-01T00:07:41;5.95;;;5.45;;
836;SDS011;400;53.550;9.932;2023-03-01T00:10:08;5.30;;;4.80;;
836;SDS011;400;53.550;9.932;2023-03-01T00:12:37;5.03;;;4.63;;
836;SDS011;400;53.550;9.932;2023-03-01T00:15:05;5.10;;;4.60;;
836;SDS011;400;53.550;9.932;2023-03-01T00:17:33;7.00;;;4.85;;
836;SDS011;400;53.550;9.932;2023-03-01T00:19:59;6.93;;;5.00;;
836;SDS011;400;53.550;9.932;2023-03-01T00:22:26;8.00;;;5.65;;
836;SDS011;400;53.550;9.932;2023-03-01T00:24:54;8.00;;;5.30;;
836;SDS011;400;53.550;9.932;2023-03-01T00:27:22;8.20;;;5.97;;
836;SDS011;400;53.550;9.932;2023-03-01T00:29:54;8.90;;;5.85;;
836;SDS011;400;53.550;9.932;2023-03-01T00:32:23;9.23;;;6.10;;
836;SDS011;400;53.550;9.932;2023-03-01T00:34:50;5.97;;;5.38;;
836;SDS011;400;53.550;9.932;2023-03-01T00:37:20;7.57;;;5.95;;
836;SDS011;400;53.550;9.932;2023-03-01T00:39:47;9.52;;;5.82;;
836;SDS011;400;53.550;9.932;2023-03-01T00:42:13;6.30;;;5.65;;
836;SDS011;400;53.550;9.932;2023-03-01T00:44:41;8.70;;;6.10;;
836;SDS011;400;53.550;9.932;2023-03-01T00:47:09;7.72;;;5.65;;
836;SDS011;400;53.550;9.932;2023-03-01T00:49:36;6.32;;;5.72;;
836;SDS011;400;53.550;9.932;2023-03-01T00:52:03;6.75;;;6.05;;
836;SDS011;400;53.550;9.932;2023-03-01T00:54:30;7.82;;;6.40;;
836;SDS011;400;53.550;9.932;2023-03-01T00:56:57;6.15;;;5.50;;
836;SDS011;400;53.550;9.932;2023-03-01T00:59:23;7.32;;;6.30;;
836;SDS011;400;53.550;9.932;2023-03-01T01:01:50;7.55;;;5.55;;
836;SDS011;400;53.550;9.932;2023-03-01T01:04:18;5.65;;;5.15;;
836;SDS011;400;53.550;9.932;2023-03-01T01:06:46;7.78;;;5.38;;
836;SDS011;400;53.550;9.932;2023-03-01T01:09:14;6.13;;;5.53;;
836;SDS011;400;53.550;9.932;2023-03-01T01:11:43;7.93;;;7.13;;
836;SDS011;400;53.550;9.932;2023-03-01T01:14:10;5.70;;;5.20;;
836;SDS011;400;53.550;9.932;2023-03-01T01:16:37;7.20;;;5.93;;
836;SDS011;400;53.550;9.932;2023-03-01T01:19:04;6.82;;;6.22;;
836;SDS011;400;53.550;9.932;2023-03-01T01:21:32;6.13;;;5.53;;
836;SDS011;400;53.550;9.932;2023-03-01T01:23:59;8.55;;;6.45;;
836;SDS011;400;53.550;9.932;2023-03-01T01:26:27;6.63;;;5.93;;
836;SDS011;400;53.550;9.932;2023-03-01T01:28:55;7.00;;;6.20;;
836;SDS011;400;53.550;9.932;2023-03-01T01:31:23;6.60;;;5.55;;
836;SDS011;400;53.550;9.932;2023-03-01T01:33:50;7.15;;;6.13;;
836;SDS011;400;53.550;9.932;2023-03-01T01:36:19;8.27;;;5.43;;
836;SDS011;400;53.550;9.932;2023-03-01T01:38:49;5.75;;;5.13;;
836;SDS011;400;53.550;9.932;2023-03-01T01:41:16;7.30;;;4.88;;
836;SDS011;400;53.550;9.932;2023-03-01T01:43:45;5.63;;;5.13;;
836;SDS011;400;53.550;9.932;2023-03-01T01:46:16;5.22;;;4.65;;
836;SDS011;400;53.550;9.932;2023-03-01T01:48:48;4.80;;;4.20;;
836;SDS011;400;53.550;9.932;2023-03-01T01:51:20;5.18;;;4.72;;
836;SDS011;400;53.550;9.932;2023-03-01T01:53:53;4.97;;;4.55;;
836;SDS011;400;53.550;9.932;2023-03-01T01:56:27;3.40;;;3.10;;
836;SDS011;400;53.550;9.932;2023-03-01T01:58:56;3.92;;;3.58;;
836;SDS011;400;53.550;9.932;2023-03-01T02:01:23;3.63;;;3.42;;
836;SDS011;400;53.550;9.932;2023-03-01T02:03:51;4.05;;;3.60;;
836;SDS011;400;53.550;9.932;2023-03-01T02:06:19;4.38;;;3.97;;
836;SDS011;400;53.550;9.932;2023-03-01T02:08:55;4.25;;;3.25;;
836;SDS011;400;53.550;9.932;2023-03-01T02:11:26;4.10;;;3.10;;
836;SDS011;400;53.550;9.932;2023-03-01T02:13:55;3.75;;;3.30;;
836;SDS011;400;53.550;9.932;2023-03-01T02:16:22;3.38;;;3.00;;
836;SDS011;400;53.550;9.932;2023-03-01T02:18:49;3.05;;;2.63;;
836;SDS011;400;53.550;9.932;2023-03-01T02:21:19;3.40;;;2.97;;
836;SDS011;400;53.550;9.932;2023-03-01T02:24:03;3.58;;;2.65;;
836;SDS011;400;53.550;9.932;2023-03-01T02:26:39;3.00;;;2.80;;
836;SDS011;400;53.550;9.932;2023-03-01T02:29:12;3.13;;;2.83;;
836;SDS011;400;53.550;9.932;2023-03-01T02:31:39;3.72;;;3.10;;
836;SDS011;400;53.550;9.932;2023-03-01T02:34:08;3.65;;;3.00;;
836;SDS011;400;53.550;9.932;2023-03-01T02:36:38;3.00;;;2.67;;
836;SDS011;400;53.550;9.932;2023-03-01T02:39:07;3.63;;;3.05;;
836;SDS011;400;53.550;9.932;2023-03-01T02:41:40;7.30;;;3.80;;
836;SDS011;400;53.550;9.932;2023-03-01T02:44:13;3.70;;;3.03;;
836;SDS011;400;53.550;9.932;2023-03-01T02:46:44;3.75;;;3.13;;
836;SDS011;400;53.550;9.932;2023-03-01T02:49:21;3.95;;;3.63;;
836;SDS011;400;53.550;9.932;2023-03-01T02:54:50;3.95;;;3.35;;
836;SDS011;400;53.550;9.932;2023-03-01T02:57:22;3.65;;;3.35;;
836;SDS011;400;53.550;9.932;2023-03-01T02:59:53;3.25;;;2.80;;
836;SDS011;400;53.550;9.932;2023-03-01T03:02:23;5.10;;;3.60;;
836;SDS011;400;53.550;9.932;2023-03-01T03:05:01;4.40;;;4.00;;
836;SDS011;400;53.550;9.932;2023-03-01T03:07:32;5.00;;;3.35;;
836;SDS011;400;53.550;9.932;2023-03-01T03:10:00;3.60;;;3.30;;
836;SDS011;400;53.550;9.932;2023-03-01T03:12:27;3.58;;;3.03;;
836;SDS011;400;53.550;9.932;2023-03-01T03:14:55;4.47;;;4.10;;
836;SDS011;400;53.550;9.932;2023-03-01T03:17:22;3.67;;;3.30;;
836;SDS011;400;53.550;9.932;2023-03-01T03:19:49;5.78;;;3.25;;
836;SDS011;400;53.550;9.932;2023-03-01T03:22:16;5.68;;;4.35;;
836;SDS011;400;53.550;9.932;2023-03-01T03:24:43;3.50;;;3.20;;
836;SDS011;400;53.550;9.932;2023-03-01T03:27:10;3.92;;;3.55;;
836;SDS011;400;53.550;9.932;2023-03-01T03:29:36;6.18;;;3.15;;
836;SDS011;400;53.550;9.932;2023-03-01T03:32:05;3.88;;;3.47;;
836;SDS011;400;53.550;9.932;2023-03-01T03:34:32;3.83;;;3.30;;
836;SDS011;400;53.550;9.932;2023-03-01T03:36:59;4.03;;;3.03;;
836;SDS011;400;53.550;9.932;2023-03-01T03:39:26;4.15;;;3.30;;
836;SDS011;400;53.550;9.932;2023-03-01T03:41:54;3.20;;;2.90;;
836;SDS011;400;53.550;9.932;2023-03-01T03:44:21;3.47;;;3.17;;
836;SDS011;400;53.550;9.932;2023-03-01T03:46:47;4.40;;;3.33;;
836;SDS011;400;53.550;9.932;2023-03-01T03:49:16;2.95;;;2.75;;
836;SDS011;400;53.550;9.932;2023-03-01T03:51:44;3.55;;;2.75;;
836;SDS011;400;53.550;9.932;2023-03-01T03:54:11;4.75;;;3.25;;
836;SDS011;400;53.550;9.932;2023-03-01T03:56:38;4.05;;;2.80;;
836;SDS011;400;53.550;9.932;2023-03-01T03:59:05;2.70;;;2.50;;
836;SDS011;400;53.550;9.932;2023-03-01T04:01:32;3.50;;;3.08;;
836;SDS011;400;53.550;9.932;2023-03-01T04:03:59;3.50;;;2.70;;
836;SDS011;400;53.550;9.932;2023-03-01T04:06:32;4.25;;;3.22;;
836;SDS011;400;53.550;9.932;2023-03-01T04:09:02;3.30;;;3.00;;
836;SDS011;400;53.550;9.932;2023-03-01T04:11:30;3.20;;;2.70;;
836;SDS011;400;53.550;9.932;2023-03-01T04:13:59;3.63;;;3.33;;
836;SDS011;400;53.550;9.932;2023-03-01T04:16:26;3.00;;;2.47;;
836;SDS011;400;53.550;9.932;2023-03-01T04:18:53;3.40;;;3.05;;
836;SDS011;400;53.550;9.932;2023-03-01T04:21:20;2.90;;;2.58;;
836;SDS011;400;53.550;9.932;2023-03-01T04:23:49;2.65;;;2.45;;
836;SDS011;400;53.550;9.932;2023-03-01T04:26:17;4.18;;;3.50;;
836;SDS011;400;53.550;9.932;2023-03-01T04:28:44;2.65;;;2.33;;
836;SDS011;400;53.550;9.932;2023-03-01T04:31:14;3.22;;;2.53;;
836;SDS011;400;53.550;9.932;2023-03-01T04:33:43;5.93;;;4.13;;
836;SDS011;400;53.550;9.932;2023-03-01T04:36:12;3.00;;;2.70;;
836;SDS011;400;53.550;9.932;2023-03-01T04:38:40;3.50;;;2.90;;
836;SDS011;400;53.550;9.932;2023-03-01T04:41:09;3.88;;;2.72;;
836;SDS011;400;53.550;9.932;2023-03-01T04:43:37;4.10;;;3.35;;
836;SDS011;400;53.550;9.932;2023-03-01T04:46:05;2.80;;;2.60;;
836;SDS011;400;53.550;9.932;2023-03-01T04:48:34;2.55;;;2.25;;
836;SDS011;400;53.550;9.932;2023-03-01T04:51:01;2.65;;;2.45;;
836;SDS011;400;53.550;9.932;2023-03-01T04:53:29;2.42;;;2.10;;
836;SDS011;400;53.550;9.932;2023-03-01T04:55:57;2.78;;;2.58;;
836;SDS011;400;53.550;9.932;2023-03-01T04:58:26;3.30;;;2.75;;
836;SDS011;400;53.550;9.932;2023-03-01T05:00:54;4.90;;;3.05;;
836;SDS011;400;53.550;9.932;2023-03-01T05:03:21;3.15;;;2.90;;
836;SDS011;400;53.550;9.932;2023-03-01T05:05:49;4.15;;;2.75;;
836;SDS011;400;53.550;9.932;2023-03-01T05:08:17;3.47;;;2.88;;
836;SDS011;400;53.550;9.932;2023-03-01T05:10:46;4.30;;;2.50;;
836;SDS011;400;53.550;9.932;2023-03-01T05:13:16;3.13;;;2.50;;
836;SDS011;400;53.550;9.932;2023-03-01T05:15:48;4.35;;;2.80;;
836;SDS011;400;53.550;9.932;2023-03-01T05:18:19;3.30;;;3.03;;
836;SDS011;400;53.550;9.932;2023-03-01T05:20:50;5.60;;;3.25;;
836;SDS011;400;53.550;9.932;2023-03-01T05:23:17;3.65;;;3.03;;
836;SDS011;400;53.550;9.932;2023-03-01T05:25:44;4.53;;;2.70;;
836;SDS011;400;53.550;9.932;2023-03-01T05:28:11;4.72;;;2.95;;
836;SDS011;400;53.550;9.932;2023-03-01T05:30:38;3.00;;;2.67;;
836;SDS011;400;53.550;9.932;2023-03-01T05:33:07;3.03;;;2.80;;
836;SDS011;400;53.550;9.932;2023-03-01T05:35:39;3.00;;;2.80;;
836;SDS011;400;53.550;9.932;2023-03-01T05:38:06;2.80;;;2.60;;
836;SDS011;400;53.550;9.932;2023-03-01T05:40:33;3.05;;;2.75;;
836;SDS011;400;53.550;9.932;2023-03-01T05:43:01;3.28;;;2.92;;
836;SDS011;400;53.550;9.932;2023-03-01T05:45:30;3.22;;;2.72;;
836;SDS011;400;53.550;9.932;2023-03-01T05:47:58;4.88;;;3.30;;
836;SDS011;400;53.550;9.932;2023-03-01T05:50:28;9.18;;;3.28;;
836;SDS011;400;53.550;9.932;2023-03-01T05:52:57;8.43;;;3.90;;
836;SDS011;400;53.550;9.932;2023-03-01T05:55:26;5.03;;;3.33;;
836;SDS011;400;53.550;9.932;2023-03-01T05:57:53;3.85;;;3.22;;
836;SDS011;400;53.550;9.932;2023-03-01T06:00:21;4.55;;;3.80;;
836;SDS011;400;53.550;9.932;2023-03-01T06:02:48;3.40;;;2.92;;
836;SDS011;400;53.550;9.932;2023-03-01T06:05:15;6.43;;;3.22;;
836;SDS011;400;53.550;9.932;2023-03-01T06:07:43;5.68;;;3.00;;
836;SDS011;400;53.550;9.932;2023-03-01T06:10:11;4.35;;;3.08;;
836;SDS011;400;53.550;9.932;2023-03-01T06:12:39;10.13;;;7.60;;
836;SDS011;400;53.550;9.932;2023-03-01T06:15:07;4.65;;;2.90;;
836;SDS011;400;53.550;9.932;2023-03-01T06:17:37;4.25;;;3.85;;
836;SDS011;400;53.550;9.932;2023-03-01T06:20:08;4.20;;;3.22;;
836;SDS011;400;53.550;9.932;2023-03-01T06:22:38;5.25;;;3.53;;
836;SDS011;400;53.550;9.932;2023-03-01T06:25:07;4.75;;;3.50;;
836;SDS011;400;53.550;9.932;2023-03-01T06:27:34;7.15;;;3.45;;
836;SDS011;400;53.550;9.932;2023-03-01T06:30:02;4.10;;;3.30;;
836;SDS011;400;53.550;9.932;2023-03-01T06:32:32;11.93;;;5.07;;
836;SDS011;400;53.550;9.932;2023-03-01T06:34:59;10.35;;;4.32;;
836;SDS011;400;53.550;9.932;2023-03-01T06:37:27;5.60;;;3.85;;
836;SDS011;400;53.550;9.932;2023-03-01T06:39:54;6.28;;;3.80;;
836;SDS011;400;53.550;9.932;2023-03-01T06:42:22;6.05;;;3.67;;
836;SDS011;400;53.550;9.932;2023-03-01T06:44:49;4.47;;;2.95;;
836;SDS011;400;53.550;9.932;2023-03-01T06:47:16;7.43;;;4.10;;
836;SDS011;400;53.550;9.932;2023-03-01T06:49:43;4.30;;;3.90;;
836;SDS011;400;53.550;9.932;2023-03-01T06:52:10;7.47;;;4.18;;
836;SDS011;400;53.550;9.932;2023-03-01T06:54:39;5.45;;;4.95;;
836;SDS011;400;53.550;9.932;2023-03-01T06:57:06;5.63;;;5.05;;
836;SDS011;400;53.550;9.932;2023-03-01T06:59:34;6.30;;;5.70;;
836;SDS011;400;53.550;9.932;2023-03-01T07:02:03;6.50;;;5.90;;
836;SDS011;400;53.550;9.932;2023-03-01T07:04:31;7.68;;;6.85;;
836;SDS011;400;53.550;9.932;2023-03-01T07:06:59;6.38;;;5.78;;
836;SDS011;400;53.550;9.932;2023-03-01T07:09:27;6.20;;;5.60;;
836;SDS011;400;53.550;9.932;2023-03-01T07:11:54;6.22;;;5.63;;
836;SDS011;400;53.550;9.932;2023-03-01T07:14:22;6.25;;;5.18;;
836;SDS011;400;53.550;9.932;2023-03-01T07:16:54;5.47;;;4.95;;
836;SDS011;400;53.550;9.932;2023-03-01T07:19:29;6.18;;;4.95;;
836;SDS011;400;53.550;9.932;2023-03-01T07:22:04;4.47;;;4.10;;
836;SDS011;400;53.550;9.932;2023-03-01T07:24:33;5.20;;;4.30;;
836;SDS011;400;53.550;9.932;2023-03-01T07:27:00;5.20;;;4.40;;
836;SDS011;400;53.550;9.932;2023-03-01T07:29:27;7.15;;;5.07;;
836;SDS011;400;53.550;9.932;2023-03-01T07:31:55;5.50;;;5.00;;
836;SDS011;400;53.550;9.932;2023-03-01T07:34:23;6.43;;;4.53;;
836;SDS011;400;53.550;9.932;2023-03-01T07:36:50;15.07;;;6.18;;
836;SDS011;400;53.550;9.932;2023-03-01T07:39:17;9.45;;;4.95;;
836;SDS011;400;53.550;9.932;2023-03-01T07:41:44;6.18;;;5.20;;
836;SDS011;400;53.550;9.932;2023-03-01T07:44:11;16.30;;;9.63;;
836;SDS011;400;53.550;9.932;2023-03-01T07:46:37;8.50;;;6.20;;
836;SDS011;400;53.550;9.932;2023-03-01T07:49:06;9.05;;;6.07;;
836;SDS011;400;53.550;9.932;2023-03-01T07:51:35;7.65;;;6.30;;
836;SDS011;400;53.550;9.932;2023-03-01T07:54:01;8.57;;;6.15;;
836;SDS011;400;53.550;9.932;2023-03-01T07:56:33;11.00;;;5.60;;
836;SDS011;400;53.550;9.932;2023-03-01T07:59:00;8.75;;;6.43;;
836;SDS011;400;53.550;9.932;2023-03-01T08:01:31;6.82;;;6.13;;
836;SDS011;400;53.550;9.932;2023-03-01T08:03:59;8.20;;;6.22;;
836;SDS011;400;53.550;9.932;2023-03-01T08:06:38;15.18;;;6.88;;
836;SDS011;400;53.550;9.932;2023-03-01T08:09:09;8.60;;;6.95;;
836;SDS011;400;53.550;9.932;2023-03-01T08:11:40;9.85;;;6.97;;
836;SDS011;400;53.550;9.932;2023-03-01T08:14:07;7.55;;;6.53;;
836;SDS011;400;53.550;9.932;2023-03-01T08:16:35;7.40;;;6.65;;
836;SDS011;400;53.550;9.932;2023-03-01T08:19:05;9.10;;;7.30;;
836;SDS011;400;53.550;9.932;2023-03-01T08:21:33;8.07;;;7.25;;
836;SDS011;400;53.550;9.932;2023-03-01T08:24:02;7.97;;;7.20;;
836;SDS011;400;53.550;9.932;2023-03-01T08:26:30;9.55;;;8.55;;
836;SDS011;400;53.550;9.932;2023-03-01T08:29:01;16.33;;;11.40;;
836;SDS011;400;53.550;9.932;2023-03-01T08:31:32;9.43;;;8.32;;
836;SDS011;400;53.550;9.932;2023-03-01T08:34:01;12.38;;;8.05;;
836;SDS011;400;53.550;9.932;2023-03-01T08:36:31;10.07;;;8.90;;
836;SDS011;400;53.550;9.932;2023-03-01T08:39:03;13.23;;;8.90;;
836;SDS011;400;53.550;9.932;2023-03-01T08:41:31;9.98;;;8.90;;
836;SDS011;400;53.550;9.932;2023-03-01T08:44:01;12.00;;;8.95;;
836;SDS011;400;53.550;9.932;2023-03-01T08:46:34;12.05;;;9.73;;
836;SDS011;400;53.550;9.932;2023-03-01T08:49:05;12.70;;;9.77;;
836;SDS011;400;53.550;9.932;2023-03-01T08:51:34;10.43;;;9.30;;
836;SDS011;400;53.550;9.932;2023-03-01T08:54:13;11.25;;;9.95;;
836;SDS011;400;53.550;9.932;2023-03-01T08:57:22;11.40;;;10.20;;
836;SDS011;400;53.550;9.932;2023-03-01T09:00:02;11.50;;;10.40;;
836;SDS011;400;53.550;9.932;2023-03-01T09:02:34;14.75;;;11.07;;
836;SDS011;400;53.550;9.932;2023-03-01T09:05:04;11.52;;;10.25;;
836;SDS011;400;53.550;9.932;2023-03-01T09:07:33;10.50;;;9.35;;
836;SDS011;400;53.550;9.932;2023-03-01T09:10:04;10.20;;;9.30;;
836;SDS011;400;53.550;9.932;2023-03-01T09:12:32;10.50;;;9.40;;
836;SDS011;400;53.550;9.932;2023-03-01T09:14:59;9.85;;;8.85;;
836;SDS011;400;53.550;9.932;2023-03-01T09:17:25;10.57;;;9.48;;
836;SDS011;400;53.550;9.932;2023-03-01T09:19:52;11.90;;;9.10;;
836;SDS011;400;53.550;9.932;2023-03-01T09:22:19;17.85;;;10.30;;
836;SDS011;400;53.550;9.932;2023-03-01T09:24:47;13.60;;;10.63;;
836;SDS011;400;53.550;9.932;2023-03-01T09:27:16;9.75;;;8.80;;
836;SDS011;400;53.550;9.932;2023-03-01T09:29:44;13.10;;;10.23;;
836;SDS011;400;53.550;9.932;2023-03-01T09:32:12;11.27;;;10.07;;
836;SDS011;400;53.550;9.932;2023-03-01T09:34:38;11.43;;;10.27;;
836;SDS011;400;53.550;9.932;2023-03-01T09:37:19;11.00;;;9.88;;
836;SDS011;400;53.550;9.932;2023-03-01T09:39:46;15.70;;;10.02;;
836;SDS011;400;53.550;9.932;2023-03-01T09:42:16;10.98;;;9.82;;
836;SDS011;400;53.550;9.932;2023-03-01T09:44:43;11.68;;;10.57;;
836;SDS011;400;53.550;9.932;2023-03-01T09:47:17;14.63;;;10.15;;
836;SDS011;400;53.550;9.932;2023-03-01T09:49:52;13.80;;;10.30;;
836;SDS011;400;53.550;9.932;2023-03-01T09:52:29;12.73;;;11.52;;
836;SDS011;400;53.550;9.932;2023-03-01T09:55:05;13.20;;;11.15;;
836;SDS011;400;53.550;9.932;2023-03-01T09:57:41;17.33;;;11.88;;
836;SDS011;400;53.550;9.932;2023-03-01T10:00:24;13.02;;;11.73;;
836;SDS011;400;53.550;9.932;2023-03-01T10:03:08;13.85;;;11.07;;
836;SDS011;400;53.550;9.932;2023-03-01T10:05:47;13.48;;;11.43;;
836;SDS011;400;53.550;9.932;2023-03-01T10:08:28;11.48;;;9.90;;
836;SDS011;400;53.550;9.932;2023-03-01T10:11:00;11.77;;;10.57;;
836;SDS011;400;53.550;9.932;2023-03-01T10:13:33;12.02;;;10.23;;
836;SDS011;400;53.550;9.932;2023-03-01T10:16:06;12.93;;;10.30;;
836;SDS011;400;53.550;9.932;2023-03-01T10:18:43;10.82;;;9.40;;
836;SDS011;400;53.550;9.932;2023-03-01T10:21:18;10.85;;;9.75;;
836;SDS011;400;53.550;9.932;2023-03-01T10:23:46;10.95;;;9.85;;
836;SDS011;400;53.550;9.932;2023-03-01T10:26:22;10.60;;;9.63;;
836;SDS011;400;53.550;9.932;2023-03-01T10:29:00;11.80;;;10.45;;
836;SDS011;400;53.550;9.932;2023-03-01T10:31:32;11.82;;;10.25;;
836;SDS011;400;53.550;9.932;2023-03-01T10:34:07;10.75;;;9.65;;
836;SDS011;400;53.550;9.932;2023-03-01T10:36:37;13.30;;;11.52;;
836;SDS011;400;53.550;9.932;2023-03-01T10:39:11;10.48;;;9.38;;
836;SDS011;400;53.550;9.932;2023-03-01T10:41:45;18.75;;;10.38;;
836;SDS011;400;53.550;9.932;2023-03-01T10:44:38;40.83;;;33.25;;
836;SDS011;400;53.550;9.932;2023-03-01T10:47:18;27.38;;;17.58;;
836;SDS011;400;53.550;9.932;2023-03-01T10:49:54;11.85;;;10.05;;
836;SDS011;400;53.550;9.932;2023-03-01T10:52:24;10.70;;;8.55;;
836;SDS011;400;53.550;9.932;2023-03-01T10:54:59;12.10;;;8.82;;
836;SDS011;400;53.550;9.932;2023-03-01T10:57:31;11.68;;;10.48;;
836;SDS011;400;53.550;9.932;2023-03-01T11:03:08;10.93;;;8.75;;
836;SDS011;400;53.550;9.932;2023-03-01T11:05:50;11.63;;;9.75;;
836;SDS011;400;53.550;9.932;2023-03-01T11:08:29;16.63;;;9.68;;
836;SDS011;400;53.550;9.932;2023-03-01T11:11:03;10.05;;;8.30;;
836;SDS011;400;53.550;9.932;2023-03-01T11:13:52;11.07;;;9.90;;
836;SDS011;400;53.550;9.932;2023-03-01T11:16:31;10.60;;;8.18;;
836;SDS011;400;53.550;9.932;2023-03-01T11:19:01;10.95;;;9.18;;
836;SDS011;400;53.550;9.932;2023-03-01T11:21:52;10.77;;;9.18;;
836;SDS011;400;53.550;9.932;2023-03-01T11:24:27;15.75;;;10.00;;
836;SDS011;400;53.550;9.932;2023-03-01T11:27:01;9.82;;;8.15;;
836;SDS011;400;53.550;9.932;2023-03-01T11:29:37;10.32;;;8.85;;
836;SDS011;400;53.550;9.932;2023-03-01T11:32:10;8.75;;;7.93;;
836;SDS011;400;53.550;9.932;2023-03-01T11:34:42;10.13;;;7.40;;
836;SDS011;400;53.550;9.932;2023-03-01T11:37:14;8.88;;;7.50;;
836;SDS011;400;53.550;9.932;2023-03-01T11:39:53;9.23;;;7.68;;
836;SDS011;400;53.550;9.932;2023-03-01T11:42:29;9.02;;;8.20;;
836;SDS011;400;53.550;9.932;2023-03-01T11:45:06;8.38;;;6.55;;
836;SDS011;400;53.550;9.932;2023-03-01T11:47:45;9.50;;;7.65;;
836;SDS011;400;53.550;9.932;2023-03-01T11:50:26;9.73;;;8.73;;
836;SDS011;400;53.550;9.932;2023-03-01T11:53:05;8.73;;;7.20;;
836;SDS011;400;53.550;9.932;2023-03-01T11:55:58;7.57;;;6.75;;
836;SDS011;400;53.550;9.932;2023-03-01T11:58:43;9.45;;;6.65;;
836;SDS011;400;53.550;9.932;2023-03-01T12:01:23;8.75;;;5.45;;
836;SDS011;400;53.550;9.932;2023-03-01T12:06:53;5.75;;;5.15;;
836;SDS011;400;53.550;9.932;2023-03-01T12:09:36;7.00;;;6.07;;
836;SDS011;400;53.550;9.932;2023-03-01T12:12:25;8.13;;;7.30;;
836;SDS011;400;53.550;9.932;2023-03-01T12:15:09;10.20;;;5.70;;
836;SDS011;400;53.550;9.932;2023-03-01T12:18:03;8.63;;;6.47;;
836;SDS011;400;53.550;9.932;2023-03-01T12:20:49;6.28;;;5.32;;
836;SDS011;400;53.550;9.932;2023-03-01T12:23:31;5.68;;;4.72;;
836;SDS011;400;53.550;9.932;2023-03-01T12:26:23;5.90;;;4.93;;
836;SDS011;400;53.550;9.932;2023-03-01T12:28:58;6.75;;;5.20;;
836;SDS011;400;53.550;9.932;2023-03-01T12:31:44;6.00;;;5.45;;
836;SDS011;400;53.550;9.932;2023-03-01T12:34:28;7.45;;;4.72;;
836;SDS011;400;53.550;9.932;2023-03-01T12:37:17;12.27;;;5.43;;
836;SDS011;400;53.550;9.932;2023-03-01T12:39:58;6.22;;;5.28;;
836;SDS011;400;53.550;9.932;2023-03-01T12:42:38;6.78;;;5.43;;
836;SDS011;400;53.550;9.932;2023-03-01T12:45:24;6.22;;;5.10;;
836;SDS011;400;53.550;9.932;2023-03-01T12:48:08;5.97;;;4.20;;
836;SDS011;400;53.550;9.932;2023-03-01T12:50:46;6.07;;;5.22;;
836;SDS011;400;53.550;9.932;2023-03-01T12:53:19;6.22;;;5.63;;
836;SDS011;400;53.550;9.932;2023-03-01T12:55:54;5.28;;;4.65;;
836;SDS011;400;53.550;9.932;2023-03-01T12:58:28;6.32;;;4.10;;
836;SDS011;400;53.550;9.932;2023-03-01T13:01:03;4.20;;;3.75;;
836;SDS011;400;53.550;9.932;2023-03-01T13:06:53;7.07;;;5.67;;
836;SDS011;400;53.550;9.932;2023-03-01T13:09:36;6.10;;;5.33;;
836;SDS011;400;53.550;9.932;2023-03-01T13:15:26;5.85;;;5.25;;
836;SDS011;400;53.550;9.932;2023-03-01T13:17:59;4.85;;;4.43;;
836;SDS011;400;53.550;9.932;2023-03-01T13:20:33;5.63;;;4.95;;
836;SDS011;400;53.550;9.932;2023-03-01T13:23:12;5.63;;;5.05;;
836;SDS011;400;53.550;9.932;2023-03-01T13:26:10;5.40;;;4.45;;
836;SDS011;400;53.550;9.932;2023-03-01T13:28:46;5.60;;;5.10;;
836;SDS011;400;53.550;9.932;2023-03-01T13:37:19;6.88;;;5.38;;
836;SDS011;400;53.550;9.932;2023-03-01T13:39:47;6.63;;;5.33;;
836;SDS011;400;53.550;9.932;2023-03-01T13:45:14;6.82;;;6.20;;
836;SDS011;400;53.550;9.932;2023-03-01T13:47:46;8.10;;;7.28;;
836;SDS011;400;53.550;9.932;2023-03-01T13:50:21;6.30;;;5.73;;
836;SDS011;400;53.550;9.932;2023-03-01T13:52:52;8.00;;;6.00;;
836;SDS011;400;53.550;9.932;2023-03-01T13:55:26;8.83;;;6.63;;
836;SDS011;400;53.550;9.932;2023-03-01T13:58:01;8.18;;;6.20;;
836;SDS011;400;53.550;9.932;2023-03-01T14:00:35;7.67;;;5.87;;
836;SDS011;400;53.550;9.932;2023-03-01T14:03:04;9.13;;;5.35;;
836;SDS011;400;53.550;9.932;2023-03-01T14:05:35;6.90;;;6.20;;
836;SDS011;400;53.550;9.932;2023-03-01T14:08:02;5.65;;;5.10;;
836;SDS011;400;53.550;9.932;2023-03-01T14:10:31;6.30;;;5.70;;
836;SDS011;400;53.550;9.932;2023-03-01T14:13:17;5.53;;;4.65;;
836;SDS011;400;53.550;9.932;2023-03-01T14:15:57;7.40;;;6.70;;
836;SDS011;400;53.550;9.932;2023-03-01T14:18:35;7.53;;;6.43;;
836;SDS011;400;53.550;9.932;2023-03-01T14:21:12;8.57;;;6.10;;
836;SDS011;400;53.550;9.932;2023-03-01T14:23:41;9.87;;;6.20;;
836;SDS011;400;53.550;9.932;2023-03-01T14:26:09;8.43;;;5.85;;
836;SDS011;400;53.550;9.932;2023-03-01T14:28:38;7.53;;;5.77;;
836;SDS011;400;53.550;9.932;2023-03-01T14:34:16;5.50;;;4.93;;
836;SDS011;400;53.550;9.932;2023-03-01T14:36:53;5.53;;;5.03;;
836;SDS011;400;53.550;9.932;2023-03-01T14:39:25;7.25;;;5.90;;
836;SDS011;400;53.550;9.932;2023-03-01T14:41:56;8.18;;;6.40;;
836;SDS011;400;53.550;9.932;2023-03-01T14:44:25;8.35;;;5.43;;
836;SDS011;400;53.550;9.932;2023-03-01T14:46:57;6.05;;;5.40;;
836;SDS011;400;53.550;9.932;2023-03-01T14:49:30;6.72;;;5.90;;
836;SDS011;400;53.550;9.932;2023-03-01T14:52:03;8.23;;;5.78;;
836;SDS011;400;53.550;9.932;2023-03-01T14:54:37;8.00;;;6.57;;
836;SDS011;400;53.550;9.932;2023-03-01T14:57:12;6.22;;;5.05;;
836;SDS011;400;53.550;9.932;2023-03-01T14:59:43;5.63;;;5.13;;
836;SDS011;400;53.550;9.932;2023-03-01T15:02:11;5.82;;;5.20;;
836;SDS011;400;53.550;9.932;2023-03-01T15:04:42;6.13;;;5.53;;
836;SDS011;400;53.550;9.932;2023-03-01T15:07:12;5.75;;;5.03;;
836;SDS011;400;53.550;9.932;2023-03-01T15:09:43;7.95;;;5.40;;
836;SDS011;400;53.550;9.932;2023-03-01T15:12:25;6.63;;;5.50;;
836;SDS011;400;53.550;9.932;2023-03-01T15:15:08;15.68;;;10.05;;
836;SDS011;400;53.550;9.932;2023-03-01T15:18:03;6.13;;;5.53;;
836;SDS011;400;53.550;9.932;2023-03-01T15:20:39;6.68;;;5.97;;
836;SDS011;400;53.550;9.932;2023-03-01T15:23:06;7.07;;;5.47;;
836;SDS011;400;53.550;9.932;2023-03-01T15:25:48;6.25;;;5.65;;
836;SDS011;400;53.550;9.932;2023-03-01T15:28:22;7.80;;;5.75;;
836;SDS011;400;53.550;9.932;2023-03-01T15:30:54;6.38;;;5.78;;
836;SDS011;400;53.550;9.932;2023-03-01T15:33:33;6.38;;;5.78;;
836;SDS011;400;53.550;9.932;2023-03-01T15:36:03;6.45;;;5.85;;
836;SDS011;400;53.550;9.932;2023-03-01T15:38:53;5.50;;;5.00;;
836;SDS011;400;53.550;9.932;2023-03-01T15:41:22;6.65;;;5.95;;
836;SDS011;400;53.550;9.932;2023-03-01T15:43:51;6.55;;;5.65;;
836;SDS011;400;53.550;9.932;2023-03-01T15:46:23;6.68;;;5.20;;
836;SDS011;400;53.550;9.932;2023-03-01T15:48:56;7.75;;;6.95;;
836;SDS011;400;53.550;9.932;2023-03-01T15:51:29;8.60;;;6.50;;
836;SDS011;400;53.550;9.932;2023-03-01T15:53:59;8.75;;;6.82;;
836;SDS011;400;53.550;9.932;2023-03-01T15:56:31;8.10;;;6.95;;
836;SDS011;400;53.550;9.932;2023-03-01T15:59:04;8.35;;;7.50;;
836;SDS011;400;53.550;9.932;2023-03-01T16:01:40;11.38;;;7.63;;
836;SDS011;400;53.550;9.932;2023-03-01T16:04:11;8.32;;;6.40;;
836;SDS011;400;53.550;9.932;2023-03-01T16:06:46;8.80;;;8.00;;
836;SDS011;400;53.550;9.932;2023-03-01T16:09:21;9.93;;;8.93;;
836;SDS011;400;53.550;9.932;2023-03-01T16:11:51;12.40;;;8.90;;
836;SDS011;400;53.550;9.932;2023-03-01T16:14:19;11.18;;;8.82;;
836;SDS011;400;53.550;9.932;2023-03-01T16:16:47;11.35;;;8.95;;
836;SDS011;400;53.550;9.932;2023-03-01T16:19:15;11.30;;;9.60;;
836;SDS011;400;53.550;9.932;2023-03-01T16:21:48;11.20;;;9.13;;
836;SDS011;400;53.550;9.932;2023-03-01T16:24:19;11.98;;;9.93;;
836;SDS011;400;53.550;9.932;2023-03-01T16:26:52;12.48;;;10.25;;
836;SDS011;400;53.550;9.932;2023-03-01T16:29:26;11.63;;;10.27;;
836;SDS011;400;53.550;9.932;2023-03-01T16:32:01;13.25;;;9.77;;
836;SDS011;400;53.550;9.932;2023-03-01T16:34:35;11.25;;;9.70;;